Time;durP1;ratioP1;P1;durP2;ratioP2;P2;SDS_P1;SDS_P2;PMS_P1;PMS_P2;Temp;Humidity;BMP_temperature;BMP_pressure;BME280_temperature;BME280_humidity;BME280_pressure;Samples;Min_cycle;Max_cycle;Signal;HPM_P1;HPM_P2
2021/07/21 00:00:31;;;;;;;16.47;9.57;;;16.00;99.90;;;;;;4377335;32;20519;-60
2021/07/21 00:03:00;;;;;;;12.80;9.43;;;16.00;99.90;;;;;;4377183;32;20187;-61
2021/07/21 00:05:30;;;;;;;16.73;9.43;;;16.00;99.90;;;;;;4376491;32;20194;-62
2021/07/21 00:07:58;;;;;;;15.27;9.30;;;15.90;99.90;;;;;;4371369;32;20184;-60
2021/07/21 00:10:26;;;;;;;14.03;9.73;;;15.90;99.90;;;;;;4378531;32;20603;-60
2021/07/21 00:15:47;;;;;;;13.77;8.83;;;15.90;99.90;;;;;;4376652;32;20259;-60
2021/07/21 00:18:20;;;;;;;14.03;8.93;;;15.90;99.90;;;;;;4372336;32;20216;-61
2021/07/21 00:20:48;;;;;;;15.80;9.70;;;15.80;99.90;;;;;;4376801;32;20171;-61
2021/07/21 00:23:15;;;;;;;12.80;9.20;;;15.80;99.90;;;;;;4376705;32;20199;-60
2021/07/21 00:25:42;;;;;;;15.33;9.80;;;15.80;99.90;;;;;;4376862;32;20533;-62
2021/07/21 00:28:09;;;;;;;15.37;9.77;;;15.70;99.90;;;;;;4372110;32;20187;-61
2021/07/21 00:30:35;;;;;;;14.10;9.57;;;15.70;99.90;;;;;;4376444;32;20489;-61
2021/07/21 00:33:02;;;;;;;14.90;10.07;;;15.70;99.90;;;;;;4377064;32;20506;-60
2021/07/21 00:35:30;;;;;;;16.27;10.13;;;15.70;99.90;;;;;;4364434;32;20172;-61
2021/07/21 00:37:59;;;;;;;15.27;9.77;;;15.70;99.90;;;;;;4370611;32;20175;-61
2021/07/21 00:40:26;;;;;;;15.43;9.43;;;15.60;99.90;;;;;;4377590;32;20202;-62
2021/07/21 00:42:53;;;;;;;11.80;8.67;;;15.60;99.90;;;;;;4376606;32;20192;-62
2021/07/21 00:45:20;;;;;;;13.67;9.77;;;15.60;99.90;;;;;;4377413;32;20208;-61
2021/07/21 00:47:47;;;;;;;13.23;9.47;;;15.60;99.90;;;;;;4375499;32;20229;-60
2021/07/21 00:50:14;;;;;;;15.40;9.57;;;15.50;99.90;;;;;;4378447;32;20191;-61
2021/07/21 00:52:44;;;;;;;14.77;9.27;;;15.50;99.90;;;;;;4376902;32;20221;-61
2021/07/21 00:55:13;;;;;;;12.80;9.13;;;15.50;99.90;;;;;;4370320;32;20160;-62
2021/07/21 00:57:41;;;;;;;12.30;8.87;;;15.40;99.90;;;;;;4367806;32;20232;-61
2021/07/21 01:00:10;;;;;;;13.03;8.60;;;15.40;99.90;;;;;;4370740;32;20161;-61
2021/07/21 01:02:37;;;;;;;15.07;9.83;;;15.40;99.90;;;;;;4377727;32;20231;-61
2021/07/21 01:05:08;;;;;;;17.00;9.93;;;15.30;99.90;;;;;;4377883;32;20588;-61
2021/07/21 01:07:35;;;;;;;14.40;9.00;;;15.30;99.90;;;;;;4373175;32;20231;-61
2021/07/21 01:10:04;;;;;;;15.30;9.80;;;15.30;99.90;;;;;;4367150;32;20164;-60
2021/07/21 01:12:38;;;;;;;14.10;9.53;;;15.20;99.90;;;;;;4376916;32;20592;-60
2021/07/21 01:15:09;;;;;;;12.30;8.70;;;15.30;99.90;;;;;;4376422;32;20175;-61
2021/07/21 01:17:40;;;;;;;14.23;9.97;;;15.20;99.90;;;;;;4375414;32;20164;-61
2021/07/21 01:20:36;;;;;;;14.63;9.70;;;15.20;99.90;;;;;;4361731;33;20180;-60
2021/07/21 01:23:08;;;;;;;14.43;9.83;;;15.20;99.90;;;;;;4363847;32;20216;-60
2021/07/21 01:25:43;;;;;;;13.80;8.63;;;15.10;99.90;;;;;;4376146;32;20176;-60
2021/07/21 01:28:13;;;;;;;14.97;9.90;;;15.10;99.90;;;;;;4374479;32;20527;-61
2021/07/21 01:30:44;;;;;;;15.97;10.47;;;15.00;99.90;;;;;;4376548;32;20163;-60
2021/07/21 01:33:13;;;;;;;15.27;9.90;;;15.00;99.90;;;;;;4376674;32;20165;-60
2021/07/21 01:35:46;;;;;;;15.27;9.93;;;15.00;99.90;;;;;;4377279;32;20204;-59
2021/07/21 01:38:22;;;;;;;13.53;8.90;;;15.00;99.90;;;;;;4372554;32;20243;-59
2021/07/21 01:40:54;;;;;;;14.23;9.43;;;15.00;99.90;;;;;;4376298;32;20172;-59
2021/07/21 01:43:25;;;;;;;12.63;9.00;;;14.90;99.90;;;;;;4377178;32;20593;-62
2021/07/21 01:45:52;;;;;;;12.33;9.30;;;15.00;99.90;;;;;;4377709;32;20207;-59
2021/07/21 01:48:21;;;;;;;16.83;9.90;;;14.90;99.90;;;;;;4374319;32;20266;-59
2021/07/21 01:50:50;;;;;;;13.97;9.37;;;14.90;99.90;;;;;;4377064;32;20223;-62
2021/07/21 01:53:18;;;;;;;17.10;11.07;;;14.90;99.90;;;;;;4377264;32;20171;-62
2021/07/21 01:55:45;;;;;;;13.80;9.63;;;14.80;99.90;;;;;;4376149;32;20186;-61
2021/07/21 01:58:14;;;;;;;14.80;10.03;;;14.90;99.90;;;;;;4374170;32;20222;-62
2021/07/21 02:00:43;;;;;;;18.43;10.23;;;14.80;99.90;;;;;;4375973;32;20208;-60
2021/07/21 02:03:11;;;;;;;16.60;10.37;;;14.80;99.90;;;;;;4375455;32;20202;-61
2021/07/21 02:05:39;;;;;;;13.27;9.40;;;14.80;99.90;;;;;;4376099;32;20207;-61
2021/07/21 02:08:08;;;;;;;16.63;9.53;;;14.80;99.90;;;;;;4375248;32;20186;-61
2021/07/21 02:10:35;;;;;;;14.57;9.70;;;14.80;99.90;;;;;;4362516;32;20175;-61
2021/07/21 02:13:07;;;;;;;14.13;9.70;;;14.80;99.90;;;;;;4369647;32;20178;-60
2021/07/21 02:15:34;;;;;;;13.27;9.50;;;14.80;99.90;;;;;;4376716;32;20198;-61
2021/07/21 02:18:03;;;;;;;14.90;10.03;;;14.80;99.90;;;;;;4375904;32;20544;-61
2021/07/21 02:20:31;;;;;;;13.47;9.17;;;14.70;99.90;;;;;;4363632;32;20244;-61
2021/07/21 02:22:58;;;;;;;14.90;9.50;;;14.70;99.90;;;;;;4363178;32;20263;-60
2021/07/21 02:25:27;;;;;;;14.57;9.50;;;14.70;99.90;;;;;;4360985;32;20179;-62
2021/07/21 02:27:54;;;;;;;13.57;8.93;;;14.80;99.90;;;;;;4367605;32;20160;-62
2021/07/21 02:30:22;;;;;;;18.53;10.77;;;14.70;99.90;;;;;;4366609;32;20220;-62
2021/07/21 02:32:56;;;;;;;13.63;10.07;;;14.70;99.90;;;;;;4366311;32;20220;-62
2021/07/21 02:35:24;;;;;;;14.67;10.40;;;14.70;99.90;;;;;;4375408;32;20156;-61
2021/07/21 02:37:51;;;;;;;12.97;9.83;;;14.70;99.90;;;;;;4375563;32;20521;-62
2021/07/21 02:40:20;;;;;;;16.07;10.03;;;14.60;99.90;;;;;;4368030;32;20213;-61
2021/07/21 02:42:47;;;;;;;16.03;10.07;;;14.60;99.90;;;;;;4383025;32;20216;-61
2021/07/21 02:45:14;;;;;;;16.40;10.07;;;14.60;99.90;;;;;;4362417;32;20618;-61
2021/07/21 02:48:06;;;;;;;13.90;9.37;;;14.60;99.90;;;;;;4363966;32;20254;-61
2021/07/21 02:50:35;;;;;;;14.43;10.50;;;14.60;99.90;;;;;;4370123;32;20500;-60
2021/07/21 02:53:09;;;;;;;17.80;10.23;;;14.50;99.90;;;;;;4360679;33;20161;-61
2021/07/21 02:55:41;;;;;;;15.90;9.73;;;14.50;99.90;;;;;;4361580;32;20148;-61
2021/07/21 02:58:21;;;;;;;17.03;11.23;;;14.50;99.90;;;;;;4375854;32;20152;-62
2021/07/21 03:00:49;;;;;;;14.43;9.93;;;14.40;99.90;;;;;;4373664;32;20195;-62
2021/07/21 03:03:21;;;;;;;16.37;10.57;;;14.40;99.90;;;;;;4375152;32;20168;-61
2021/07/21 03:06:00;;;;;;;15.47;9.63;;;14.40;99.90;;;;;;4375539;32;20239;-60
2021/07/21 03:08:29;;;;;;;18.97;11.10;;;14.40;99.90;;;;;;4376753;32;20171;-60
2021/07/21 03:11:00;;;;;;;17.73;10.77;;;14.40;99.90;;;;;;4369816;32;20177;-62
2021/07/21 03:13:31;;;;;;;16.33;10.93;;;14.40;99.90;;;;;;4376185;32;20164;-61
2021/07/21 03:16:01;;;;;;;17.40;11.60;;;14.40;99.90;;;;;;4376681;32;20156;-60
2021/07/21 03:18:31;;;;;;;15.50;10.17;;;14.30;99.90;;;;;;4375507;32;20643;-62
2021/07/21 03:21:00;;;;;;;13.53;9.37;;;14.30;99.90;;;;;;4369030;32;20216;-61
2021/07/21 03:23:31;;;;;;;15.00;10.00;;;14.20;99.90;;;;;;4375389;32;20164;-61
2021/07/21 03:26:07;;;;;;;18.13;10.83;;;14.30;99.90;;;;;;4374610;32;20220;-61
2021/07/21 03:28:46;;;;;;;19.27;10.87;;;14.30;99.90;;;;;;4375229;32;20175;-61
2021/07/21 03:31:13;;;;;;;16.20;10.23;;;14.30;99.90;;;;;;4373953;32;20191;-61
2021/07/21 03:33:54;;;;;;;16.73;10.50;;;14.20;99.90;;;;;;4375254;32;20627;-62
2021/07/21 03:36:23;;;;;;;14.37;10.37;;;14.20;99.90;;;;;;4375055;32;20509;-61
2021/07/21 03:38:52;;;;;;;16.90;10.43;;;14.20;99.90;;;;;;4374656;32;20449;-61
2021/07/21 03:41:19;;;;;;;14.47;10.90;;;14.20;99.90;;;;;;4373783;32;20212;-60
2021/07/21 03:43:49;;;;;;;16.47;11.00;;;14.20;99.90;;;;;;4374858;32;20531;-62
2021/07/21 03:46:20;;;;;;;15.67;10.97;;;14.20;99.90;;;;;;4375119;32;20160;-62
2021/07/21 03:48:49;;;;;;;17.63;11.67;;;14.20;99.90;;;;;;4375642;32;20511;-61
2021/07/21 03:51:19;;;;;;;17.50;11.30;;;14.20;99.90;;;;;;4372277;32;20192;-61
2021/07/21 03:53:49;;;;;;;17.67;11.03;;;14.20;99.90;;;;;;4360124;33;20160;-61
2021/07/21 03:56:16;;;;;;;17.67;11.07;;;14.10;99.90;;;;;;4363306;32;20152;-62
2021/07/21 03:58:48;;;;;;;18.10;10.77;;;14.10;99.90;;;;;;4372798;32;20603;-61
2021/07/21 04:01:20;;;;;;;16.87;11.03;;;14.10;99.90;;;;;;4375360;32;20477;-61
2021/07/21 04:03:49;;;;;;;19.30;11.60;;;14.10;99.90;;;;;;4363036;32;20149;-60
2021/07/21 04:06:20;;;;;;;18.53;11.87;;;14.10;99.90;;;;;;4364780;32;20211;-60
2021/07/21 04:09:01;;;;;;;19.03;11.67;;;14.10;99.90;;;;;;4377657;32;20152;-61
2021/07/21 04:11:33;;;;;;;17.53;11.60;;;14.10;99.90;;;;;;4376658;32;20584;-61
2021/07/21 04:14:06;;;;;;;16.90;11.57;;;14.10;99.90;;;;;;4377627;32;20187;-61
2021/07/21 04:16:34;;;;;;;18.13;11.07;;;14.10;99.90;;;;;;4377710;32;20148;-61
2021/07/21 04:19:08;;;;;;;18.60;12.13;;;14.10;99.90;;;;;;4378773;32;20442;-61
2021/07/21 04:21:36;;;;;;;18.20;11.90;;;14.10;99.90;;;;;;4375914;32;20183;-60
2021/07/21 04:24:05;;;;;;;16.33;11.53;;;14.20;99.90;;;;;;4375279;32;20158;-61
2021/07/21 04:26:34;;;;;;;19.53;11.80;;;14.20;99.90;;;;;;4377170;32;20223;-60
2021/07/21 04:29:02;;;;;;;18.17;11.70;;;14.20;99.90;;;;;;4377461;32;20196;-61
2021/07/21 04:31:29;;;;;;;19.53;11.17;;;14.30;99.90;;;;;;4376179;32;20199;-61
2021/07/21 04:33:59;;;;;;;20.07;11.70;;;14.30;99.90;;;;;;4375151;32;20168;-61
2021/07/21 04:36:26;;;;;;;17.47;11.57;;;14.30;99.90;;;;;;4377224;32;20179;-62
2021/07/21 04:38:55;;;;;;;18.93;11.93;;;14.40;99.90;;;;;;4378941;32;20626;-60
2021/07/21 04:41:28;;;;;;;17.10;12.33;;;14.50;99.90;;;;;;4377029;32;20179;-62
2021/07/21 04:43:56;;;;;;;19.70;12.43;;;14.50;99.90;;;;;;4376171;32;20153;-61
2021/07/21 04:46:24;;;;;;;20.73;11.27;;;14.60;99.90;;;;;;4376771;32;20522;-61
2021/07/21 04:48:55;;;;;;;19.23;11.90;;;14.60;99.90;;;;;;4376829;32;20152;-61
2021/07/21 04:51:23;;;;;;;17.30;12.30;;;14.80;99.90;;;;;;4377215;32;20148;-60
2021/07/21 04:53:56;;;;;;;16.17;11.70;;;14.80;99.90;;;;;;4375073;32;20165;-61
2021/07/21 04:56:27;;;;;;;19.73;12.50;;;14.90;99.90;;;;;;4377666;32;20164;-61
2021/07/21 04:58:54;;;;;;;19.47;12.47;;;15.00;99.90;;;;;;4377299;32;20221;-60
2021/07/21 05:01:32;;;;;;;18.93;13.40;;;15.10;99.90;;;;;;4376994;32;20194;-61
2021/07/21 05:04:01;;;;;;;19.27;12.53;;;15.10;99.90;;;;;;4375087;32;20559;-61
2021/07/21 05:06:28;;;;;;;17.63;11.60;;;15.20;99.90;;;;;;4376322;32;20160;-61
2021/07/21 05:08:58;;;;;;;21.00;13.57;;;15.30;99.90;;;;;;4376536;32;20183;-61
2021/07/21 05:11:29;;;;;;;21.03;12.77;;;15.40;99.90;;;;;;4377636;32;20152;-60
2021/07/21 05:13:56;;;;;;;18.77;14.00;;;15.50;99.90;;;;;;4369247;32;20249;-61
2021/07/21 05:16:29;;;;;;;22.03;13.40;;;15.60;99.90;;;;;;4361964;33;20187;-61
2021/07/21 05:18:59;;;;;;;20.00;12.63;;;15.70;99.90;;;;;;4372880;32;20206;-61
2021/07/21 05:21:30;;;;;;;18.80;13.67;;;15.90;99.90;;;;;;4376642;32;20153;-59
2021/07/21 05:24:01;;;;;;;19.93;13.97;;;16.00;99.90;;;;;;4374207;32;20518;-59
2021/07/21 05:26:30;;;;;;;21.50;14.10;;;16.20;99.90;;;;;;4376649;32;20203;-59
2021/07/21 05:28:59;;;;;;;21.43;13.60;;;16.40;99.90;;;;;;4375561;32;20168;-59
2021/07/21 05:31:29;;;;;;;20.53;13.07;;;16.80;99.90;;;;;;4376986;32;20563;-60
2021/07/21 05:34:01;;;;;;;20.00;12.43;;;17.50;99.90;;;;;;4374760;32;20204;-61
2021/07/21 05:36:36;;;;;;;16.70;12.27;;;18.00;99.90;;;;;;4376700;32;20190;-60
2021/07/21 05:39:10;;;;;;;18.63;12.47;;;18.00;99.90;;;;;;4376680;32;20206;-60
2021/07/21 05:41:38;;;;;;;18.07;12.33;;;17.80;99.90;;;;;;4375091;32;20168;-60
2021/07/21 05:44:06;;;;;;;21.13;12.73;;;17.60;99.90;;;;;;4369539;32;20156;-60
2021/07/21 05:46:39;;;;;;;18.27;12.83;;;17.40;99.90;;;;;;4372936;32;20196;-60
2021/07/21 05:49:14;;;;;;;22.53;12.47;;;17.30;99.90;;;;;;4374235;32;20175;-60
2021/07/21 05:51:50;;;;;;;17.33;12.57;;;17.20;99.90;;;;;;4377114;32;20179;-60
2021/07/21 05:54:21;;;;;;;20.67;14.33;;;17.10;99.90;;;;;;4369041;32;20176;-60
2021/07/21 05:56:51;;;;;;;16.37;13.00;;;17.10;99.90;;;;;;4365920;32;20157;-60
2021/07/21 05:59:19;;;;;;;21.17;13.10;;;17.00;99.90;;;;;;4387517;32;20168;-60
2021/07/21 06:01:55;;;;;;;19.27;13.20;;;17.10;99.90;;;;;;4366240;32;20586;-60
2021/07/21 06:04:22;;;;;;;20.10;14.17;;;17.10;99.90;;;;;;4382510;32;20144;-60
2021/07/21 06:07:06;;;;;;;19.20;13.37;;;17.10;99.90;;;;;;4375908;32;20250;-60
2021/07/21 06:12:24;;;;;;;20.87;14.03;;;17.40;99.90;;;;;;4373805;32;20184;-60
2021/07/21 06:14:55;;;;;;;22.07;14.77;;;17.70;99.90;;;;;;4372363;32;20226;-60
2021/07/21 06:17:23;;;;;;;17.27;13.37;;;17.80;99.90;;;;;;4374281;32;20164;-60
2021/07/21 06:19:50;;;;;;;18.00;13.40;;;18.00;99.90;;;;;;4380487;32;20203;-60
2021/07/21 06:22:32;;;;;;;20.67;13.13;;;18.10;99.90;;;;;;4378830;32;20196;-59
2021/07/21 06:25:17;;;;;;;18.20;12.87;;;18.30;99.90;;;;;;4381054;32;20253;-61
2021/07/21 06:27:50;;;;;;;15.53;12.33;;;18.40;99.90;;;;;;4375637;32;20167;-60
2021/07/21 06:30:18;;;;;;;20.50;12.77;;;18.50;99.90;;;;;;4377876;32;20260;-60
2021/07/21 06:32:49;;;;;;;17.30;12.43;;;18.60;99.90;;;;;;4375657;32;20149;-61
2021/07/21 06:35:25;;;;;;;16.10;10.93;;;18.70;99.90;;;;;;4373173;32;20210;-61
2021/07/21 06:37:56;;;;;;;16.23;11.67;;;18.70;99.90;;;;;;4362679;32;20751;-60
2021/07/21 06:40:25;;;;;;;18.50;11.60;;;18.80;99.90;;;;;;4375205;32;20195;-60
2021/07/21 06:43:00;;;;;;;16.20;11.57;;;18.80;99.90;;;;;;4375706;32;20176;-61
2021/07/21 06:45:29;;;;;;;17.97;11.40;;;18.80;99.90;;;;;;4373218;32;20193;-60
2021/07/21 06:47:56;;;;;;;17.57;10.97;;;18.90;99.90;;;;;;4374799;32;20168;-60
2021/07/21 06:50:28;;;;;;;13.13;9.97;;;18.90;99.90;;;;;;4379753;32;20168;-60
2021/07/21 06:53:07;;;;;;;16.30;9.93;;;19.10;99.90;;;;;;4376144;32;20278;-60
2021/07/21 06:55:38;;;;;;;13.20;10.20;;;19.10;99.90;;;;;;4377217;32;20878;-61
2021/07/21 06:58:08;;;;;;;14.43;9.63;;;19.20;99.90;;;;;;4374895;32;20486;-60
2021/07/21 07:00:41;;;;;;;13.87;9.90;;;19.40;99.90;;;;;;4375288;32;20210;-61
2021/07/21 07:03:18;;;;;;;13.77;9.47;;;19.50;99.90;;;;;;4375971;32;20169;-60
2021/07/21 07:06:06;;;;;;;13.47;8.73;;;19.70;99.90;;;;;;4373979;32;20177;-60
2021/07/21 07:08:39;;;;;;;12.07;8.77;;;19.70;99.90;;;;;;4377884;32;20182;-59
2021/07/21 07:11:24;;;;;;;12.90;8.43;;;19.80;99.90;;;;;;4374195;32;20176;-59
2021/07/21 07:14:09;;;;;;;9.47;8.00;;;19.80;99.90;;;;;;4374802;32;20164;-59
2021/07/21 07:16:44;;;;;;;16.23;9.07;;;20.00;99.90;;;;;;4372493;32;20259;-60
2021/07/21 07:19:13;;;;;;;11.17;8.10;;;20.20;99.90;;;;;;4389943;32;20172;-60
2021/07/21 07:21:40;;;;;;;16.83;9.40;;;20.30;99.90;;;;;;4365069;32;20226;-60
2021/07/21 07:24:08;;;;;;;12.60;9.00;;;20.50;99.90;;;;;;4378069;32;20148;-61
2021/07/21 07:26:36;;;;;;;12.27;8.90;;;20.80;99.90;;;;;;4380968;32;20190;-61
2021/07/21 07:29:05;;;;;;;11.97;8.20;;;21.00;99.90;;;;;;4374457;32;20167;-61
2021/07/21 07:31:33;;;;;;;12.30;8.50;;;21.30;99.90;;;;;;4377215;32;20538;-60
2021/07/21 07:34:01;;;;;;;11.73;8.13;;;21.50;99.90;;;;;;4375996;32;20208;-62
2021/07/21 07:36:29;;;;;;;12.00;9.47;;;21.90;99.90;;;;;;4380888;32;20172;-60
2021/07/21 07:38:59;;;;;;;13.77;8.70;;;22.00;99.90;;;;;;4371015;32;20231;-60
2021/07/21 07:41:26;;;;;;;14.27;8.70;;;22.00;99.90;;;;;;4378108;32;20148;-59
2021/07/21 07:43:54;;;;;;;11.83;8.77;;;22.00;99.90;;;;;;4378163;32;20234;-62
2021/07/21 07:46:29;;;;;;;13.03;8.27;;;22.20;99.90;;;;;;4378189;32;20195;-61
2021/07/21 07:49:01;;;;;;;12.30;8.57;;;22.70;98.30;;;;;;4383716;32;20206;-62
2021/07/21 07:51:33;;;;;;;13.73;8.07;;;22.90;98.10;;;;;;4390852;32;20613;-62
2021/07/21 07:54:03;;;;;;;10.17;7.80;;;23.10;97.70;;;;;;4391705;32;20145;-61
2021/07/21 07:56:32;;;;;;;10.67;6.97;;;23.40;95.70;;;;;;4380456;32;20192;-61
2021/07/21 07:59:00;;;;;;;9.67;7.47;;;23.80;95.60;;;;;;4376903;32;20198;-61
2021/07/21 08:01:32;;;;;;;9.20;7.47;;;24.40;95.30;;;;;;4378538;32;20528;-60
2021/07/21 08:04:43;;;;;;;10.85;7.37;;;26.20;91.50;;;;;;4377169;32;20192;-60
2021/07/21 08:07:11;;;;;;;7.80;6.40;;;27.90;87.30;;;;;;4377089;32;20192;-60
2021/07/21 08:09:39;;;;;;;9.77;7.03;;;29.90;81.10;;;;;;4380040;32;20164;-60
2021/07/21 08:12:15;;;;;;;6.90;5.95;;;32.30;74.60;;;;;;4389562;32;20229;-62
2021/07/21 08:15:07;;;;;;;6.93;5.10;;;36.40;63.50;;;;;;4375068;32;20270;-60
2021/07/21 08:17:44;;;;;;;8.82;6.90;;;40.90;51.70;;;;;;4376524;32;20164;-60
2021/07/21 08:20:15;;;;;;;7.57;5.90;;;44.70;41.30;;;;;;4382228;32;20581;-60
2021/07/21 08:22:51;;;;;;;8.40;6.50;;;46.30;38.80;;;;;;4380022;32;20626;-59
2021/07/21 08:25:21;;;;;;;7.37;5.25;;;47.60;37.00;;;;;;4382300;32;20178;-59
2021/07/21 08:27:57;;;;;;;5.90;5.32;;;48.70;35.60;;;;;;4380661;32;20171;-60
2021/07/21 08:30:27;;;;;;;6.40;5.80;;;50.10;33.70;;;;;;4379057;32;20200;-60
2021/07/21 08:33:22;;;;;;;9.27;7.35;;;50.90;32.30;;;;;;4392929;32;20136;-60
2021/07/21 08:35:58;;;;;;;5.80;5.05;;;51.60;31.40;;;;;;4355132;32;20203;-62
2021/07/21 08:38:54;;;;;;;5.82;5.05;;;51.80;31.80;;;;;;4373562;32;20239;-60
2021/07/21 08:41:44;;;;;;;6.43;5.40;;;52.50;30.90;;;;;;4381294;32;20196;-60
2021/07/21 08:44:22;;;;;;;5.20;4.70;;;53.10;30.90;;;;;;4391777;32;20187;-60
2021/07/21 08:50:09;;;;;;;7.15;5.18;;;53.80;29.70;;;;;;4384053;32;20619;-60
2021/07/21 08:52:58;;;;;;;6.68;5.82;;;54.00;29.30;;;;;;4383063;32;20588;-60
2021/07/21 08:55:55;;;;;;;5.93;5.25;;;53.90;29.30;;;;;;4363771;32;20153;-60
2021/07/21 08:58:31;;;;;;;5.07;4.55;;;53.90;29.40;;;;;;4367674;32;20184;-61
2021/07/21 09:09:19;;;;;;;5.87;5.28;;;53.80;28.60;;;;;;4358895;32;20170;-60
2021/07/21 09:11:57;;;;;;;7.87;5.35;;;53.80;28.50;;;;;;4357595;32;20484;-60
2021/07/21 09:14:48;;;;;;;7.05;5.70;;;53.60;28.50;;;;;;4361041;32;20157;-60
2021/07/21 09:17:41;;;;;;;6.40;5.72;;;53.30;28.90;;;;;;4361620;33;20165;-62
2021/07/21 09:20:54;;;;;;;7.45;5.62;;;53.10;28.30;;;;;;4360876;32;20177;-61
2021/07/21 09:27:33;;;;;;;5.97;5.32;;;53.20;28.60;;;;;;4357280;33;20169;-61
2021/07/21 09:30:30;;;;;;;8.07;5.70;;;53.20;28.40;;;;;;4359866;33;20196;-61
2021/07/21 09:33:39;;;;;;;5.75;5.20;;;52.90;29.10;;;;;;4359148;32;20195;-61
2021/07/21 09:36:46;;;;;;;7.70;5.72;;;53.20;28.60;;;;;;4354577;33;20182;-60
2021/07/21 09:39:35;;;;;;;6.85;5.93;;;52.60;28.50;;;;;;4352671;33;20172;-61
2021/07/21 09:42:17;;;;;;;5.87;5.10;;;51.90;29.10;;;;;;4359736;32;20192;-60
2021/07/21 09:44:57;;;;;;;5.80;5.10;;;51.30;28.90;;;;;;4357584;32;20607;-60
2021/07/21 09:47:45;;;;;;;9.52;5.70;;;51.10;28.90;;;;;;4360226;32;20172;-61
2021/07/21 09:50:26;;;;;;;8.13;6.05;;;49.10;29.80;;;;;;4360385;32;20212;-61
2021/07/21 09:53:10;;;;;;;8.38;6.75;;;44.50;31.80;;;;;;4357482;32;20503;-60
2021/07/21 09:56:01;;;;;;;7.55;5.90;;;40.40;33.30;;;;;;4355743;33;20481;-64
2021/07/21 10:02:25;;;;;;;8.25;5.85;;;34.00;39.30;;;;;;4372312;32;20236;-63
2021/07/21 10:05:01;;;;;;;8.40;6.72;;;32.30;41.30;;;;;;4372189;32;20554;-63
2021/07/21 10:08:02;;;;;;;7.68;6.12;;;31.30;42.80;;;;;;4373727;32;20488;-62
2021/07/21 10:10:39;;;;;;;7.87;6.65;;;30.80;42.90;;;;;;4374745;32;20186;-61
2021/07/21 10:13:14;;;;;;;10.82;7.40;;;30.40;43.50;;;;;;4369264;32;20511;-61
2021/07/21 10:15:47;;;;;;;11.65;7.55;;;30.00;43.60;;;;;;4380610;32;20183;-60
2021/07/21 10:18:18;;;;;;;9.38;7.43;;;29.60;44.30;;;;;;4362945;32;20481;-62
2021/07/21 10:20:46;;;;;;;13.20;7.40;;;29.30;46.50;;;;;;4376815;32;20194;-60
2021/07/21 10:23:15;;;;;;;12.00;8.02;;;29.10;45.80;;;;;;4360541;32;20153;-59
2021/07/21 10:25:47;;;;;;;9.38;7.50;;;28.80;46.60;;;;;;4377908;32;20160;-62
2021/07/21 10:28:14;;;;;;;9.48;7.25;;;28.80;48.00;;;;;;4377270;32;20156;-60
2021/07/21 10:30:42;;;;;;;9.13;7.07;;;28.70;47.10;;;;;;4379856;32;20231;-61
2021/07/21 10:33:18;;;;;;;8.93;6.72;;;28.60;47.80;;;;;;4379555;32;20600;-60
2021/07/21 10:35:48;;;;;;;9.32;6.37;;;28.50;48.20;;;;;;4371942;32;20213;-61
2021/07/21 10:38:18;;;;;;;10.05;7.07;;;28.50;48.10;;;;;;4374887;32;20174;-61
2021/07/21 10:40:48;;;;;;;10.18;7.85;;;28.50;48.90;;;;;;4373728;32;20191;-62
2021/07/21 10:43:16;;;;;;;11.18;8.10;;;28.50;48.80;;;;;;4374269;32;20496;-61
2021/07/21 10:45:53;;;;;;;12.13;8.15;;;28.50;49.50;;;;;;4372980;32;20176;-61
2021/07/21 10:48:42;;;;;;;11.32;6.82;;;28.40;48.70;;;;;;4373390;32;20178;-61
2021/07/21 10:51:30;;;;;;;8.82;6.70;;;28.40;49.80;;;;;;4372402;32;20175;-62
2021/07/21 10:54:10;;;;;;;8.23;7.07;;;28.40;49.50;;;;;;4374288;32;20179;-62
2021/07/21 10:59:24;;;;;;;10.65;7.37;;;28.40;49.60;;;;;;4374525;32;20207;-63
2021/07/21 11:01:53;;;;;;;9.90;7.55;;;28.30;49.40;;;;;;4366902;32;20568;-61
2021/07/21 11:04:22;;;;;;;10.02;8.02;;;28.10;49.60;;;;;;4364933;32;20161;-61
2021/07/21 11:07:00;;;;;;;10.98;7.70;;;28.30;50.90;;;;;;4372900;32;20211;-61
2021/07/21 11:09:38;;;;;;;9.93;8.05;;;28.40;50.60;;;;;;4381403;32;20622;-61
2021/07/21 11:12:10;;;;;;;9.98;7.37;;;28.60;51.30;;;;;;4387964;32;20171;-60
2021/07/21 11:14:38;;;;;;;8.73;7.40;;;29.00;50.70;;;;;;4380030;32;20494;-60
2021/07/21 11:18:15;;;;;;;8.90;7.57;;;29.50;49.50;;;;;;4378422;32;20163;-62
2021/07/21 11:21:32;;;;;;;11.25;8.35;;;29.80;49.60;;;;;;4386663;32;20437;-63
2021/07/21 11:27:55;;;;;;;9.70;7.72;;;29.30;48.30;;;;;;4259530;33;20162;-63
2021/07/21 11:31:17;;;;;;;9.90;7.28;;;28.80;50.40;;;;;;4261085;33;20626;-63
2021/07/21 11:34:15;;;;;;;11.30;7.60;;;29.00;50.90;;;;;;4260501;33;20365;-63
2021/07/21 11:37:32;;;;;;;8.02;6.68;;;29.40;49.40;;;;;;4254081;33;20729;-63
2021/07/21 11:43:42;;;;;;;8.95;7.97;;;29.80;48.50;;;;;;4252399;33;20760;-62
2021/07/21 11:46:36;;;;;;;;;;;;;;;;;;;;;
2021/07/21 11:55:58;;;;;;;10.13;7.60;;;28.60;50.00;;;;;;4282967;33;20209;-62
2021/07/21 11:58:38;;;;;;;8.23;7.03;;;28.30;50.90;;;;;;4287493;33;20163;-61
2021/07/21 12:01:20;;;;;;;10.52;7.87;;;28.00;51.90;;;;;;4315554;33;20169;-62
2021/07/21 12:04:13;;;;;;;10.57;7.45;;;27.50;51.40;;;;;;4363567;32;20233;-60
2021/07/21 12:06:54;;;;;;;9.07;7.25;;;27.30;53.30;;;;;;4362451;32;20160;-62
2021/07/21 12:16:23;;;;;;;9.35;7.18;;;27.20;55.30;;;;;;4376438;32;20183;-61
2021/07/21 12:18:59;;;;;;;9.20;8.00;;;28.00;53.40;;;;;;4374220;32;20240;-61
2021/07/21 12:21:28;;;;;;;12.77;8.65;;;28.40;52.60;;;;;;4378224;32;20575;-62
2021/07/21 12:24:00;;;;;;;12.13;7.35;;;28.50;51.60;;;;;;4375172;32;20272;-62
2021/07/21 12:26:38;;;;;;;10.60;8.63;;;28.80;52.10;;;;;;4376535;32;20518;-63
2021/07/21 12:29:05;;;;;;;10.27;8.23;;;28.80;51.40;;;;;;4376356;32;20203;-62
2021/07/21 12:31:33;;;;;;;10.15;8.20;;;28.60;52.40;;;;;;4376934;32;20534;-62
2021/07/21 12:34:17;;;;;;;9.00;7.53;;;28.40;52.50;;;;;;4376683;32;20176;-63
2021/07/21 12:36:47;;;;;;;9.93;7.57;;;28.30;52.80;;;;;;4376088;32;20610;-62
2021/07/21 12:39:16;;;;;;;10.27;7.32;;;28.20;52.00;;;;;;4388321;32;20194;-60
2021/07/21 12:41:43;;;;;;;8.15;6.93;;;28.20;53.50;;;;;;4384853;32;20187;-64
2021/07/21 12:44:15;;;;;;;8.70;6.75;;;28.30;53.90;;;;;;4388460;32;20220;-61
2021/07/21 12:46:44;;;;;;;9.38;8.07;;;28.40;53.10;;;;;;4377073;32;20222;-61
2021/07/21 12:49:11;;;;;;;11.32;7.62;;;28.50;52.90;;;;;;4377262;32;20170;-64
2021/07/21 12:51:38;;;;;;;9.00;7.22;;;28.60;53.90;;;;;;4380643;32;20190;-63
2021/07/21 12:54:06;;;;;;;7.50;6.37;;;28.50;53.40;;;;;;4377112;32;20647;-62
2021/07/21 12:56:33;;;;;;;12.80;7.95;;;28.50;54.40;;;;;;4374261;32;20239;-62
2021/07/21 12:59:08;;;;;;;14.98;8.20;;;28.50;54.00;;;;;;4374921;32;20226;-61
2021/07/21 13:01:35;;;;;;;8.35;7.50;;;28.40;54.30;;;;;;4370736;32;20156;-64
2021/07/21 13:04:06;;;;;;;11.93;7.53;;;28.30;54.10;;;;;;4368036;32;20212;-63
2021/07/21 13:06:33;;;;;;;7.20;6.28;;;28.20;53.70;;;;;;4365090;32;20239;-62
2021/07/21 13:09:00;;;;;;;10.60;7.40;;;28.10;54.20;;;;;;4366092;32;20164;-63
2021/07/21 13:11:30;;;;;;;10.13;7.15;;;28.10;55.60;;;;;;4365837;32;20203;-63
2021/07/21 13:14:00;;;;;;;11.63;8.27;;;28.30;54.70;;;;;;4365037;32;20564;-62
2021/07/21 13:16:29;;;;;;;11.02;8.20;;;28.40;54.70;;;;;;4366181;32;20160;-63
2021/07/21 13:19:04;;;;;;;9.68;8.05;;;28.40;54.50;;;;;;4368769;32;20168;-63
2021/07/21 13:21:35;;;;;;;10.32;7.62;;;28.20;54.10;;;;;;4368017;32;20213;-63
2021/07/21 13:24:11;;;;;;;8.50;6.80;;;28.10;54.90;;;;;;4365322;32;20183;-63
2021/07/21 13:26:39;;;;;;;10.18;7.37;;;28.00;54.90;;;;;;4369086;32;20205;-63
2021/07/21 13:29:13;;;;;;;9.98;8.40;;;28.00;56.70;;;;;;4370994;32;20659;-63
2021/07/21 13:31:41;;;;;;;9.10;7.40;;;27.90;54.40;;;;;;4346661;33;20160;-63
2021/07/21 13:34:18;;;;;;;11.00;8.52;;;27.60;55.10;;;;;;4369768;32;20156;-62
2021/07/21 13:36:47;;;;;;;9.25;7.40;;;27.30;55.00;;;;;;4361782;32;20218;-62
2021/07/21 13:39:14;;;;;;;9.20;7.47;;;27.00;56.70;;;;;;4365377;32;20489;-63
2021/07/21 13:41:43;;;;;;;9.85;6.82;;;26.90;58.50;;;;;;4352552;33;20172;-62
2021/07/21 13:44:11;;;;;;;9.57;7.65;;;26.90;58.30;;;;;;4360658;32;20225;-62
2021/07/21 13:46:47;;;;;;;10.02;8.20;;;26.90;58.10;;;;;;4358136;32;20535;-62
2021/07/21 13:49:13;;;;;;;12.32;8.15;;;26.90;57.90;;;;;;4359086;32;20176;-63
2021/07/21 13:51:43;;;;;;;10.30;8.73;;;26.80;58.00;;;;;;4361672;32;20183;-62
2021/07/21 13:54:13;;;;;;;8.73;7.62;;;26.70;59.00;;;;;;4363829;32;20235;-62
2021/07/21 13:56:40;;;;;;;9.45;7.68;;;26.60;57.40;;;;;;4361392;32;20168;-62
2021/07/21 13:59:07;;;;;;;12.65;9.10;;;26.70;58.20;;;;;;4361803;32;20187;-63